Airfield :
LOGIN :

Register | Disclaimer

   EN    FR    IT 

 










Legend :    VFR   Marginal VFR   IFR   Intensive IFR   Very Intensive IFR
Visi :
Ceiling :
>= 8 km
>= 3000ft
5 to 8 km
1000 to 3000 ft
1500m to 5 km
500 to 1000 ft
800 to 1500m
200 to 500 ft
< 800m
< 200 ft
Symbols :   Thunderstorms  Fog  Heavy snow  Heavy precipitations  Wind > 20 kt
SIGMETs :     Misc.  Thunderstorms  Icing  Turbulence  Mountain Waves  Volcanic Ashes






- Airport Elevation : 74 ft
- IATA code : EIN


EHEH - Eindhoven

CURRENT METAR :
  • 210225Z AUTO 19023G38KT 160V230 9999 FEW031CB SCT040 BKN044 OVC051 13/05 Q0984 BLU

EXPIRED METARs :
  • 210155Z AUTO 19020KT 160V230 9999 FEW030CB SCT042 OVC055 12/05 Q0985 BLU
  • 210125Z AUTO 18020G30KT 150V220 9999 FEW045 SCT081 BKN093 12/04 Q0985 BLU
  • 210055Z AUTO 17019G31KT 9999 FEW075 SCT082 12/05 Q0986 BLU
  • 210025Z AUTO 17017G29KT 140V200 9999 FEW073 BKN086 BKN140 11/05 Q0987 BLU
  • 202355Z AUTO 17016KT 140V210 9999 SCT100 BKN160 11/05 Q0988 BLU

TAF TAF EHEH
Valid from the 21 at 00:00 until the 22 at 06:00 UTC


202354Z 2100/2206 19018G30KT 9999 -RA SCT040 OVC050
TEMPO 2102/2106 20025G43KT 3000 RA SHRA SCT014 BKN020 SCT040CB
BECMG 2105/2107 24020G30KT 9999 SCT020
PROB30
TEMPO 2114/2418 -SHRA SCT020CB
BECMG 2119/2122 20015KT SCT020 OVC050
TEMPO 2121/2204 3500 RADZ SCT006 BKN010 OVC020
BECMG 2200/2203 30010KT
BECMG 2204/2206 23006KT 9999 SCT020



MET'MAP, your aeronautical weather chart ! - Copyright ORBIFLY December 2007 - Disclaimer

ORBIFLY MET'MAP TEAM :

Programming & Development : Alexandra Zaïnal
Concept & original design : Baudouin d'Aumeries
Assistance for programming : Marc-Olivier Méhu
Technical & hardware support : Manuel Goepfert

Contact : metmap@orbifly.com




SOURCES & CREDITS :

   NOAA